createdAt,value
2023-03-22T00:00:31.482Z,100.00
2023-03-22T00:02:39.363Z,100.00
2023-03-22T00:04:49.969Z,100.00
2023-03-22T00:06:57.788Z,100.00
2023-03-22T00:09:05.826Z,100.00
2023-03-22T00:11:14.932Z,100.00
2023-03-22T00:13:22.801Z,100.00
2023-03-22T00:15:31.238Z,100.00
2023-03-22T00:17:39.466Z,100.00
2023-03-22T00:19:50.114Z,100.00
2023-03-22T00:21:58.433Z,100.00
2023-03-22T00:24:06.688Z,100.00
2023-03-22T00:26:16.273Z,100.00
2023-03-22T00:28:25.407Z,100.00
2023-03-22T00:30:33.503Z,100.00
2023-03-22T00:32:42.582Z,100.00
2023-03-22T00:34:53.149Z,100.00
2023-03-22T00:37:01.866Z,100.00
2023-03-22T00:39:09.737Z,100.00
2023-03-22T00:41:19.621Z,100.00
2023-03-22T00:43:27.437Z,100.00
2023-03-22T00:45:36.386Z,100.00
2023-03-22T00:47:44.395Z,100.00
2023-03-22T00:49:54.936Z,100.00
2023-03-22T00:52:02.923Z,100.00
2023-03-22T00:54:10.951Z,100.00
2023-03-22T00:56:18.985Z,100.00
2023-03-22T00:58:51.366Z,100.00
2023-03-22T01:01:00.078Z,100.00
2023-03-22T01:03:08.775Z,100.00
2023-03-22T01:05:22.142Z,100.00
2023-03-22T01:07:30.014Z,100.00
2023-03-22T01:09:37.859Z,100.00
2023-03-22T01:11:47.425Z,100.00
2023-03-22T01:13:56.162Z,100.00
2023-03-22T01:16:04.153Z,100.00
2023-03-22T01:18:12.243Z,100.00
2023-03-22T01:20:23.385Z,100.00
2023-03-22T01:22:31.455Z,100.00
2023-03-22T01:24:39.546Z,100.00
2023-03-22T01:26:47.380Z,100.00
2023-03-22T01:28:55.607Z,100.00
2023-03-22T01:31:04.933Z,100.00
2023-03-22T01:33:13.057Z,100.00
2023-03-22T01:35:24.017Z,100.00
2023-03-22T01:37:32.787Z,100.00
2023-03-22T01:39:41.158Z,100.00
2023-03-22T01:41:51.472Z,100.00
2023-03-22T01:44:22.616Z,100.00
2023-03-22T01:46:33.477Z,100.00
2023-03-22T01:48:46.246Z,100.00
2023-03-22T01:51:06.554Z,100.00
2023-03-22T01:53:23.819Z,100.00
2023-03-22T01:55:33.420Z,100.00
2023-03-22T01:57:56.142Z,100.00
2023-03-22T02:00:19.098Z,100.00
2023-03-22T02:02:46.788Z,100.00
2023-03-22T02:05:05.666Z,100.00
2023-03-22T02:07:26.105Z,100.00
2023-03-22T02:09:39.653Z,100.00
2023-03-22T02:11:55.107Z,100.00
2023-03-22T02:14:19.427Z,100.00
2023-03-22T02:17:06.427Z,100.00
2023-03-22T02:19:52.171Z,100.00
2023-03-22T02:22:28.186Z,100.00
2023-03-22T02:25:04.548Z,100.00
2023-03-22T02:27:35.740Z,100.00
2023-03-22T02:29:47.404Z,100.00
2023-03-22T02:32:09.975Z,100.00
2023-03-22T02:34:45.907Z,100.00
2023-03-22T02:37:29.363Z,100.00
2023-03-22T02:39:47.267Z,100.00
2023-03-22T02:42:13.020Z,100.00
2023-03-22T02:44:29.461Z,100.00
2023-03-22T02:46:42.507Z,100.00
2023-03-22T02:48:58.872Z,100.00
2023-03-22T02:51:13.249Z,100.00
2023-03-22T02:53:25.577Z,100.00
2023-03-22T02:55:40.749Z,100.00
2023-03-22T02:57:53.170Z,100.00
2023-03-22T03:00:04.915Z,100.00
2023-03-22T03:02:17.920Z,100.00
2023-03-22T03:04:31.525Z,100.00
2023-03-22T03:06:46.272Z,100.00
2023-03-22T03:08:58.159Z,100.00
2023-03-22T03:11:11.861Z,100.00
2023-03-22T03:13:20.968Z,100.00
2023-03-22T03:15:29.760Z,100.00
2023-03-22T03:17:56.694Z,100.00
2023-03-22T03:20:21.948Z,100.00
2023-03-22T03:22:42.541Z,100.00
2023-03-22T03:24:56.748Z,100.00
2023-03-22T03:27:13.594Z,100.00
2023-03-22T03:29:28.071Z,100.00
2023-03-22T03:31:44.973Z,100.00
2023-03-22T03:34:01.893Z,100.00
2023-03-22T03:36:14.392Z,100.00
2023-03-22T03:38:26.522Z,100.00
2023-03-22T03:40:38.189Z,100.00
2023-03-22T03:42:53.852Z,100.00
2023-03-22T03:45:02.542Z,100.00
2023-03-22T03:47:15.656Z,100.00
2023-03-22T03:49:27.378Z,100.00
2023-03-22T03:51:36.630Z,100.00
2023-03-22T03:53:44.924Z,100.00
2023-03-22T03:55:52.732Z,100.00
2023-03-22T03:58:03.609Z,100.00
2023-03-22T04:00:14.616Z,100.00
2023-03-22T04:02:29.768Z,100.00
2023-03-22T04:04:40.182Z,100.00
2023-03-22T04:06:48.294Z,100.00
2023-03-22T04:09:01.991Z,100.00
2023-03-22T04:11:13.995Z,100.00
2023-03-22T04:13:26.042Z,100.00
2023-03-22T04:15:38.658Z,100.00
2023-03-22T04:17:49.987Z,100.00
2023-03-22T04:19:58.768Z,100.00
2023-03-22T04:22:07.450Z,100.00
2023-03-22T04:24:16.312Z,100.00
2023-03-22T04:26:27.286Z,100.00
2023-03-22T04:28:55.340Z,100.00
2023-03-22T04:31:04.245Z,100.00
2023-03-22T04:33:32.684Z,100.00
2023-03-22T04:35:47.308Z,100.00
2023-03-22T04:37:56.018Z,100.00
2023-03-22T04:40:07.018Z,100.00
2023-03-22T04:42:28.718Z,100.00
2023-03-22T04:45:06.674Z,100.00
2023-03-22T04:47:15.985Z,100.00
2023-03-22T04:49:23.772Z,100.00
2023-03-22T04:51:32.250Z,100.00
2023-03-22T04:53:53.605Z,100.00
2023-03-22T04:56:02.825Z,100.00
2023-03-22T04:58:11.697Z,100.00
2023-03-22T05:00:23.330Z,100.00
2023-03-22T05:02:32.401Z,100.00
2023-03-22T05:04:40.573Z,100.00
2023-03-22T05:06:57.331Z,100.00
2023-03-22T05:09:14.311Z,100.00
2023-03-22T05:11:24.436Z,100.00
2023-03-22T05:13:52.238Z,100.00
2023-03-22T05:16:03.343Z,100.00
2023-03-22T05:18:20.603Z,100.00
2023-03-22T05:20:28.813Z,100.00
2023-03-22T05:22:50.675Z,100.00
2023-03-22T05:25:00.082Z,100.00
2023-03-22T05:27:08.812Z,100.00
2023-03-22T05:29:17.204Z,100.00
2023-03-22T05:31:49.326Z,100.00
2023-03-22T05:33:57.792Z,100.00
2023-03-22T05:36:11.390Z,100.00
2023-03-22T05:38:30.001Z,100.00
2023-03-22T05:40:41.413Z,100.00
2023-03-22T05:42:49.473Z,100.00
2023-03-22T05:45:04.560Z,100.00
2023-03-22T05:47:15.003Z,100.00
2023-03-22T05:49:44.196Z,100.00
2023-03-22T05:51:52.190Z,100.00
2023-03-22T05:54:02.739Z,100.00
2023-03-22T05:56:17.982Z,100.00
2023-03-22T05:58:29.121Z,100.00
2023-03-22T06:00:37.298Z,100.00
2023-03-22T06:03:06.894Z,100.00
2023-03-22T06:05:21.183Z,100.00
2023-03-22T06:07:30.582Z,100.00
2023-03-22T06:09:50.243Z,100.00
2023-03-22T06:12:03.866Z,100.00
2023-03-22T06:14:11.897Z,100.00
2023-03-22T06:16:42.103Z,100.00
2023-03-22T06:18:52.660Z,100.00
2023-03-22T06:21:00.823Z,100.00
2023-03-22T06:23:09.145Z,100.00
2023-03-22T06:25:18.204Z,100.00
2023-03-22T06:27:28.135Z,100.00
2023-03-22T06:29:36.040Z,100.00
2023-03-22T06:31:47.647Z,89.89
2023-03-22T06:33:58.896Z,75.26
2023-03-22T06:36:13.749Z,65.37
2023-03-22T06:38:40.072Z,59.88
2023-03-22T06:40:48.886Z,55.81
2023-03-22T06:42:57.444Z,53.50
2023-03-22T06:45:08.067Z,51.22
2023-03-22T06:47:20.180Z,49.65
2023-03-22T06:49:49.314Z,49.87
2023-03-22T06:52:03.755Z,49.05
2023-03-22T06:54:13.577Z,48.08
2023-03-22T06:56:22.177Z,45.14
2023-03-22T06:58:33.808Z,46.12
2023-03-22T07:00:42.204Z,45.59
2023-03-22T07:02:52.686Z,41.35
2023-03-22T07:05:15.779Z,38.22
2023-03-22T07:07:23.635Z,37.12
2023-03-22T07:09:31.743Z,35.91
2023-03-22T07:11:41.038Z,35.31
2023-03-22T07:13:50.050Z,34.67
2023-03-22T07:16:04.533Z,33.82
2023-03-22T07:18:35.974Z,33.67
2023-03-22T07:20:46.533Z,32.10
2023-03-22T07:22:54.634Z,32.08
2023-03-22T07:25:04.852Z,30.72
2023-03-22T07:27:14.322Z,29.81
2023-03-22T07:29:22.450Z,29.54
2023-03-22T07:31:31.742Z,29.18
2023-03-22T07:33:45.594Z,28.36
2023-03-22T07:35:56.089Z,28.84
2023-03-22T07:38:04.164Z,27.28
2023-03-22T07:40:14.724Z,26.10
2023-03-22T07:42:22.904Z,28.08
2023-03-22T07:45:10.382Z,30.95
2023-03-22T07:47:40.001Z,33.96
2023-03-22T07:50:07.945Z,39.18
2023-03-22T07:52:19.594Z,42.91
2023-03-22T07:54:33.730Z,43.65
2023-03-22T07:56:45.153Z,45.13
2023-03-22T07:58:53.466Z,46.66
2023-03-22T08:01:09.069Z,48.97
2023-03-22T08:03:39.461Z,49.07
2023-03-22T08:06:07.252Z,50.63
2023-03-22T08:08:18.790Z,52.10
2023-03-22T08:10:30.615Z,51.29
2023-03-22T08:12:38.467Z,50.79
2023-03-22T08:15:03.249Z,51.92
2023-03-22T08:17:11.778Z,54.55
2023-03-22T08:19:19.689Z,55.14
2023-03-22T08:21:28.699Z,55.72
2023-03-22T08:23:42.371Z,55.48
2023-03-22T08:25:53.575Z,55.92
2023-03-22T08:28:02.666Z,55.94
2023-03-22T08:30:11.978Z,57.17
2023-03-22T08:32:20.554Z,58.47
2023-03-22T08:34:28.445Z,58.52
2023-03-22T08:36:36.305Z,59.32
2023-03-22T08:38:48.385Z,58.27
2023-03-22T08:40:59.603Z,59.37
2023-03-22T08:43:07.880Z,58.35
2023-03-22T08:45:16.771Z,59.14
2023-03-22T08:47:34.651Z,59.62
2023-03-22T08:49:44.813Z,61.31
2023-03-22T08:52:00.683Z,60.08
2023-03-22T08:54:25.092Z,59.49
2023-03-22T08:56:33.492Z,59.40
2023-03-22T08:58:52.959Z,58.34
2023-03-22T09:01:21.194Z,60.71
2023-03-22T09:03:34.086Z,60.41
2023-03-22T09:05:42.141Z,60.27
2023-03-22T09:07:50.165Z,62.51
2023-03-22T09:10:11.008Z,61.59
2023-03-22T09:12:22.712Z,61.68
2023-03-22T09:14:30.980Z,61.81
2023-03-22T09:16:40.063Z,59.97
2023-03-22T09:18:48.565Z,59.99
2023-03-22T09:20:59.148Z,60.78
2023-03-22T09:23:13.037Z,60.67
2023-03-22T09:25:24.557Z,58.59
2023-03-22T09:27:34.001Z,58.35
2023-03-22T09:29:42.605Z,58.06
2023-03-22T09:31:55.720Z,55.87
2023-03-22T09:34:12.134Z,53.62
2023-03-22T09:36:20.515Z,49.56
2023-03-22T09:38:28.714Z,47.85
2023-03-22T09:40:46.677Z,44.19
2023-03-22T09:42:57.582Z,41.70
2023-03-22T09:45:07.443Z,40.41
2023-03-22T09:47:19.631Z,38.67
2023-03-22T09:49:38.501Z,36.09
2023-03-22T09:51:53.126Z,37.73
2023-03-22T09:54:01.410Z,36.41
2023-03-22T09:56:16.930Z,37.69
2023-03-22T09:58:31.718Z,36.85
2023-03-22T10:00:45.755Z,36.03
2023-03-22T10:03:01.924Z,35.75
2023-03-22T10:05:22.396Z,35.58
2023-03-22T10:07:35.783Z,36.86
2023-03-22T10:09:54.300Z,34.57
2023-03-22T10:12:13.138Z,35.40
2023-03-22T10:14:33.198Z,35.43
2023-03-22T10:16:42.501Z,33.52
2023-03-22T10:18:55.391Z,34.09
2023-03-22T10:21:05.525Z,35.61
2023-03-22T10:23:18.730Z,36.33
2023-03-22T10:25:34.105Z,35.85
2023-03-22T10:27:44.870Z,34.88
2023-03-22T10:29:56.934Z,36.23
2023-03-22T10:32:17.265Z,37.80
2023-03-22T10:34:28.172Z,39.23
2023-03-22T10:36:39.099Z,39.41
2023-03-22T10:38:51.071Z,40.53
2023-03-22T10:41:01.534Z,37.74
2023-03-22T10:43:20.118Z,36.70
2023-03-22T10:45:30.164Z,36.69
2023-03-22T10:47:43.612Z,37.21
2023-03-22T10:49:56.164Z,36.42
2023-03-22T10:52:08.085Z,35.07
2023-03-22T10:54:17.236Z,34.65
2023-03-22T10:56:25.190Z,36.62
2023-03-22T10:58:37.361Z,36.20
2023-03-22T11:00:52.014Z,35.97
2023-03-22T11:03:02.994Z,36.44
2023-03-22T11:05:23.014Z,37.56
2023-03-22T11:07:34.907Z,38.00
2023-03-22T11:09:42.729Z,38.80
2023-03-22T11:11:54.618Z,39.69
2023-03-22T11:14:09.792Z,40.67
2023-03-22T11:16:20.534Z,40.32
2023-03-22T11:18:33.942Z,39.73
2023-03-22T11:20:44.773Z,43.15
2023-03-22T11:22:57.461Z,41.36
2023-03-22T11:25:06.679Z,40.16
2023-03-22T11:27:28.090Z,40.47
2023-03-22T11:29:48.501Z,40.15
2023-03-22T11:31:59.235Z,41.08
2023-03-22T11:34:07.209Z,41.13
2023-03-22T11:36:20.580Z,40.21
2023-03-22T11:38:32.746Z,42.35
2023-03-22T11:40:51.497Z,41.82
2023-03-22T11:43:13.835Z,42.50
2023-03-22T11:45:29.656Z,41.79
2023-03-22T11:47:41.383Z,40.89
2023-03-22T11:49:51.681Z,40.87
2023-03-22T11:52:09.710Z,39.15
2023-03-22T11:54:25.982Z,39.12
2023-03-22T11:56:34.328Z,40.18
2023-03-22T11:58:59.791Z,38.78
2023-03-22T12:01:13.479Z,38.34
2023-03-22T12:03:26.758Z,38.79
2023-03-22T12:05:36.308Z,38.33
2023-03-22T12:07:45.588Z,38.66
2023-03-22T12:09:58.960Z,39.26
2023-03-22T12:12:09.555Z,38.20
2023-03-22T12:14:24.489Z,39.42
2023-03-22T12:16:44.376Z,38.23
2023-03-22T12:19:01.281Z,39.47
2023-03-22T12:21:09.414Z,38.40
2023-03-22T12:23:20.348Z,38.28
2023-03-22T12:25:32.273Z,38.44
2023-03-22T12:27:43.988Z,38.63
2023-03-22T12:29:57.372Z,39.41
2023-03-22T12:32:12.358Z,39.81
2023-03-22T12:34:23.462Z,38.54
2023-03-22T12:36:39.258Z,38.55
2023-03-22T12:38:52.070Z,39.04
2023-03-22T12:41:04.468Z,38.41
2023-03-22T12:43:18.498Z,39.16
2023-03-22T12:45:30.592Z,38.65
2023-03-22T12:47:44.725Z,38.77
2023-03-22T12:50:00.022Z,38.84
2023-03-22T12:52:17.000Z,38.57
2023-03-22T12:54:28.605Z,37.63
2023-03-22T12:56:42.220Z,37.23
2023-03-22T12:58:56.016Z,37.13
2023-03-22T13:01:22.223Z,37.31
2023-03-22T13:03:41.823Z,38.30
2023-03-22T13:05:52.570Z,37.50
2023-03-22T13:08:04.617Z,38.18
2023-03-22T13:10:54.298Z,38.06
2023-03-22T13:13:14.080Z,38.30
2023-03-22T13:15:42.158Z,37.95
2023-03-22T13:17:50.801Z,37.40
2023-03-22T13:20:06.712Z,39.02
2023-03-22T13:22:19.767Z,38.09
2023-03-22T13:24:27.720Z,37.23
2023-03-22T13:26:41.622Z,36.08
2023-03-22T13:28:59.017Z,38.03
2023-03-22T13:31:08.260Z,36.32
2023-03-22T13:33:22.363Z,37.06
2023-03-22T13:35:45.648Z,37.82
2023-03-22T13:37:54.841Z,35.91
2023-03-22T13:40:06.106Z,37.27
2023-03-22T13:42:22.945Z,37.38
2023-03-22T13:44:35.029Z,37.18
2023-03-22T13:46:53.815Z,38.44
2023-03-22T13:49:23.500Z,39.33
2023-03-22T13:51:36.117Z,38.93
2023-03-22T13:54:00.783Z,40.08
2023-03-22T13:56:10.948Z,38.83
2023-03-22T13:58:41.354Z,38.00
2023-03-22T14:00:57.568Z,36.88
2023-03-22T14:03:12.521Z,36.12
2023-03-22T14:05:25.366Z,36.54
2023-03-22T14:07:44.479Z,37.39
2023-03-22T14:09:54.986Z,36.32
2023-03-22T14:12:08.859Z,35.82
2023-03-22T14:14:25.700Z,36.62
2023-03-22T14:16:46.475Z,36.79
2023-03-22T14:18:54.276Z,35.95
2023-03-22T14:21:08.278Z,35.42
2023-03-22T14:53:47.783Z,35.66
2023-03-22T14:55:56.692Z,35.80
2023-03-22T14:58:06.762Z,37.24
2023-03-22T15:00:20.049Z,36.78
2023-03-22T15:02:40.970Z,36.81
2023-03-22T15:04:49.195Z,37.86
2023-03-22T15:07:00.270Z,36.99
2023-03-22T15:09:19.776Z,37.10
2023-03-22T15:11:28.618Z,37.72
2023-03-22T15:13:40.068Z,37.62
2023-03-22T15:15:48.921Z,37.14
2023-03-22T15:17:57.869Z,37.58
2023-03-22T15:20:07.856Z,38.07
2023-03-22T15:22:18.039Z,37.68
2023-03-22T15:24:33.824Z,38.37
2023-03-22T15:26:43.180Z,38.00
2023-03-22T15:28:58.696Z,38.15
2023-03-22T15:31:07.326Z,38.66
2023-03-22T15:33:24.110Z,38.45
2023-03-22T15:35:34.979Z,39.20
2023-03-22T15:37:46.907Z,38.26
2023-03-22T15:39:57.749Z,39.40
2023-03-22T15:42:15.148Z,39.92
2023-03-22T15:44:29.913Z,37.98
2023-03-22T15:46:53.566Z,38.99
2023-03-22T15:49:04.050Z,38.88
2023-03-22T15:51:16.828Z,39.32
2023-03-22T15:53:33.279Z,39.58
2023-03-22T15:55:44.448Z,40.96
2023-03-22T15:57:54.703Z,40.46
2023-03-22T16:00:09.789Z,40.30
2023-03-22T16:02:27.641Z,40.03
2023-03-22T16:04:37.686Z,40.93
2023-03-22T16:06:46.078Z,41.79
2023-03-22T16:08:54.609Z,41.35
2023-03-22T16:11:05.233Z,41.85
2023-03-22T16:13:21.522Z,41.99
2023-03-22T16:15:31.539Z,42.34
2023-03-22T16:17:39.368Z,42.46
2023-03-22T16:19:49.209Z,42.56
2023-03-22T16:22:00.576Z,43.85
2023-03-22T16:24:12.999Z,44.14
2023-03-22T16:26:23.526Z,44.56
2023-03-22T16:28:31.433Z,44.23
2023-03-22T16:30:41.273Z,44.59
2023-03-22T16:32:50.611Z,45.15
2023-03-22T16:34:59.392Z,45.29
2023-03-22T16:37:14.040Z,45.82
2023-03-22T16:39:22.068Z,46.02
2023-03-22T16:41:38.333Z,46.99
2023-03-22T16:43:46.292Z,46.86
2023-03-22T16:45:54.235Z,45.91
2023-03-22T16:48:02.979Z,47.13
2023-03-22T16:50:11.961Z,47.01
2023-03-22T16:52:23.283Z,47.01
2023-03-22T16:54:34.377Z,47.21
2023-03-22T16:56:46.636Z,47.02
2023-03-22T16:58:55.087Z,47.65
2023-03-22T17:01:04.311Z,48.53
2023-03-22T17:03:18.646Z,47.93
2023-03-22T17:05:28.561Z,48.25
2023-03-22T17:07:37.753Z,48.72
2023-03-22T17:09:48.435Z,49.97
2023-03-22T17:12:00.558Z,49.27
2023-03-22T17:14:08.568Z,50.01
2023-03-22T17:16:16.689Z,50.21
2023-03-22T17:18:24.836Z,50.52
2023-03-22T17:20:36.935Z,50.45
2023-03-22T17:22:44.986Z,50.45
2023-03-22T17:24:54.951Z,50.59
2023-03-22T17:27:06.722Z,51.10
2023-03-22T17:29:14.702Z,52.06
2023-03-22T17:31:23.269Z,51.89
2023-03-22T17:33:32.233Z,52.74
2023-03-22T17:35:41.858Z,53.62
2023-03-22T17:37:52.465Z,54.13
2023-03-22T17:40:20.945Z,54.43
2023-03-22T17:42:31.413Z,55.70
2023-03-22T17:44:41.339Z,55.74
2023-03-22T17:47:21.706Z,56.26
2023-03-22T17:49:17.527Z,55.42
2023-03-22T17:51:25.747Z,55.10
2023-03-22T17:54:19.543Z,55.07
2023-03-22T17:56:34.927Z,54.54
2023-03-22T17:58:41.194Z,54.85
2023-03-22T18:00:49.830Z,54.75
2023-03-22T18:02:58.298Z,54.93
2023-03-22T18:05:06.541Z,55.44
2023-03-22T18:07:14.827Z,55.36
2023-03-22T18:09:23.809Z,55.74
2023-03-22T18:11:31.992Z,55.68
2023-03-22T18:13:44.396Z,56.00
2023-03-22T18:15:52.800Z,57.40
2023-03-22T18:18:01.292Z,55.82
2023-03-22T18:20:24.726Z,55.64
2023-03-22T18:22:40.249Z,55.85
2023-03-22T18:24:48.488Z,55.99
2023-03-22T18:27:10.411Z,56.51
2023-03-22T18:29:21.850Z,56.17
2023-03-22T18:31:30.972Z,57.11
2023-03-22T18:33:39.997Z,57.53
2023-03-22T18:35:52.269Z,58.52
2023-03-22T18:38:01.225Z,58.40
2023-03-22T18:40:48.659Z,58.76
2023-03-22T18:42:48.460Z,59.40
2023-03-22T18:44:59.421Z,59.83
2023-03-22T18:47:09.252Z,60.67
2023-03-22T18:49:17.819Z,61.75
2023-03-22T18:51:31.661Z,63.61
2023-03-22T18:53:41.304Z,63.49
2023-03-22T18:55:54.270Z,62.29
2023-03-22T18:58:04.453Z,61.73
2023-03-22T19:00:16.565Z,60.27
2023-03-22T19:02:38.951Z,59.13
2023-03-22T19:04:48.630Z,58.94
2023-03-22T19:07:04.342Z,59.92
2023-03-22T19:09:12.383Z,60.89
2023-03-22T19:11:21.020Z,62.08
2023-03-22T19:13:29.150Z,60.80
2023-03-22T19:15:46.871Z,59.35
2023-03-22T19:18:00.791Z,59.81
2023-03-22T19:20:13.074Z,60.37
2023-03-22T19:22:21.853Z,59.57
2023-03-22T19:24:31.756Z,60.04
2023-03-22T19:26:41.495Z,60.83
2023-03-22T19:31:08.189Z,61.13
2023-03-22T19:33:34.724Z,61.03
2023-03-22T19:35:47.220Z,60.24
2023-03-22T19:37:55.243Z,60.29
2023-03-22T19:41:14.860Z,59.64
2023-03-22T19:42:37.299Z,59.80
2023-03-22T19:44:45.995Z,59.41
2023-03-22T19:47:00.636Z,59.29
2023-03-22T19:49:08.833Z,58.57
2023-03-22T19:51:17.263Z,58.89
2023-03-22T19:54:03.699Z,58.24
2023-03-22T19:55:55.599Z,58.21
2023-03-22T19:58:03.485Z,57.83
2023-03-22T20:00:44.568Z,57.75
2023-03-22T20:02:45.443Z,57.02
2023-03-22T20:04:54.823Z,56.78
2023-03-22T20:07:03.129Z,56.85
2023-03-22T20:09:11.221Z,57.11
2023-03-22T20:11:29.767Z,57.46
2023-03-22T20:13:47.841Z,57.91
2023-03-22T20:15:56.111Z,58.34
2023-03-22T20:18:07.180Z,58.64
2023-03-22T20:20:17.046Z,57.98
2023-03-22T20:22:25.936Z,58.70
2023-03-22T20:24:33.961Z,59.68
2023-03-22T20:26:42.154Z,58.50
2023-03-22T20:28:51.371Z,57.72
2023-03-22T20:30:59.406Z,56.84
2023-03-22T20:33:10.679Z,57.07
2023-03-22T20:35:19.043Z,56.61
2023-03-22T20:37:27.012Z,56.49
2023-03-22T20:39:35.342Z,56.73
2023-03-22T20:41:43.602Z,57.63
2023-03-22T20:43:51.688Z,57.30
2023-03-22T20:46:00.165Z,57.82
2023-03-22T20:48:11.327Z,57.34
2023-03-22T20:50:19.881Z,57.83
2023-03-22T20:52:30.040Z,57.86
2023-03-22T20:54:38.654Z,58.01
2023-03-22T20:56:47.136Z,57.84
2023-03-22T20:58:55.568Z,58.42
2023-03-22T21:01:03.798Z,58.45
2023-03-22T21:03:14.989Z,58.50
2023-03-22T21:05:23.773Z,57.76
2023-03-22T21:07:32.050Z,57.65
2023-03-22T21:09:40.119Z,57.87
2023-03-22T21:11:48.210Z,57.65
2023-03-22T21:13:56.326Z,57.14
2023-03-22T21:16:07.316Z,56.90
2023-03-22T21:18:21.567Z,56.97
2023-03-22T21:20:32.715Z,56.56
2023-03-22T21:22:41.748Z,56.39
2023-03-22T21:24:49.903Z,56.17
2023-03-22T21:26:57.921Z,55.92
2023-03-22T21:29:06.708Z,55.97
2023-03-22T21:31:18.309Z,56.16
2023-03-22T21:33:29.533Z,55.87
2023-03-22T21:35:37.602Z,55.96
2023-03-22T21:37:45.611Z,55.49
2023-03-22T21:39:55.387Z,55.67
2023-03-22T21:42:06.952Z,56.03
2023-03-22T21:44:16.417Z,55.99
2023-03-22T21:46:25.839Z,55.83
2023-03-22T21:48:42.215Z,55.90
2023-03-22T21:50:49.988Z,56.16
2023-03-22T21:52:58.007Z,56.18
2023-03-22T21:55:06.736Z,55.71
2023-03-22T21:57:15.316Z,55.77
2023-03-22T21:59:23.419Z,55.53
2023-03-22T22:01:33.596Z,55.45
2023-03-22T22:03:44.289Z,55.55
2023-03-22T22:05:53.000Z,55.87
2023-03-22T22:08:00.997Z,56.41
2023-03-22T22:10:10.732Z,55.59
2023-03-22T22:12:19.099Z,56.07
2023-03-22T22:14:30.738Z,56.01
2023-03-22T22:16:38.940Z,56.03
2023-03-22T22:18:49.764Z,55.79
2023-03-22T22:21:00.768Z,56.03
2023-03-22T22:23:09.297Z,55.34
2023-03-22T22:25:19.399Z,55.91
2023-03-22T22:27:27.735Z,55.74
2023-03-22T22:29:36.058Z,55.43
2023-03-22T22:31:44.094Z,55.63
2023-03-22T22:33:55.841Z,56.04
2023-03-22T22:36:05.016Z,56.39
2023-03-22T22:38:13.136Z,56.03
2023-03-22T22:40:21.873Z,56.40
2023-03-22T22:42:30.031Z,56.20
2023-03-22T22:44:38.600Z,55.85
2023-03-22T22:46:46.654Z,56.08
2023-03-22T22:48:59.859Z,55.09
2023-03-22T22:51:10.972Z,54.78
2023-03-22T22:53:19.118Z,54.84
2023-03-22T22:55:27.179Z,53.60
2023-03-22T22:57:35.154Z,54.17
2023-03-22T22:59:44.202Z,54.20
2023-03-22T23:01:52.242Z,54.85
2023-03-22T23:04:02.752Z,54.66
2023-03-22T23:06:12.035Z,54.15
2023-03-22T23:08:20.577Z,53.66
2023-03-22T23:10:29.844Z,54.45
2023-03-22T23:12:37.930Z,54.48
2023-03-22T23:14:47.960Z,55.59
2023-03-22T23:16:56.603Z,54.73
2023-03-22T23:19:07.826Z,54.89
2023-03-22T23:21:18.437Z,55.27
2023-03-22T23:23:28.420Z,55.73
2023-03-22T23:25:38.227Z,56.07
2023-03-22T23:27:47.103Z,56.34
2023-03-22T23:29:55.061Z,55.95
2023-03-22T23:32:05.468Z,56.35
2023-03-22T23:34:21.879Z,56.39
2023-03-22T23:36:34.481Z,56.54
2023-03-22T23:38:42.465Z,56.70
2023-03-22T23:40:50.630Z,56.92
2023-03-22T23:42:58.881Z,57.73
2023-03-22T23:45:08.397Z,58.31
2023-03-22T23:47:21.676Z,57.98
2023-03-22T23:49:32.970Z,58.03
2023-03-22T23:51:42.279Z,58.40
2023-03-22T23:53:50.749Z,57.71
2023-03-22T23:55:59.158Z,59.13
2023-03-22T23:58:07.637Z,60.70
